createdAt,value
2018-09-24T00:00:58.782Z,3.20
2018-09-24T00:03:27.110Z,3.47
2018-09-24T00:05:55.599Z,3.20
2018-09-24T00:08:23.992Z,3.80
2018-09-24T00:10:52.315Z,3.93
2018-09-24T00:13:20.691Z,3.27
2018-09-24T00:15:49.182Z,4.13
2018-09-24T00:18:17.509Z,3.90
2018-09-24T00:20:45.888Z,3.63
2018-09-24T00:23:14.312Z,4.90
2018-09-24T00:25:42.622Z,4.00
2018-09-24T00:28:10.903Z,4.23
2018-09-24T00:30:39.244Z,3.53
2018-09-24T00:33:07.563Z,4.60
2018-09-24T00:35:35.943Z,4.23
2018-09-24T00:38:04.227Z,4.73
2018-09-24T00:40:32.535Z,3.70
2018-09-24T00:43:00.833Z,3.67
2018-09-24T00:45:29.165Z,3.93
2018-09-24T00:47:57.493Z,3.93
2018-09-24T00:50:25.850Z,3.83
2018-09-24T00:52:54.189Z,4.13
2018-09-24T00:55:22.545Z,4.40
2018-09-24T00:57:51.120Z,4.13
2018-09-24T01:00:19.450Z,4.20
2018-09-24T01:02:47.782Z,3.53
2018-09-24T01:05:16.222Z,3.87
2018-09-24T01:07:44.528Z,3.93
2018-09-24T01:10:12.887Z,4.43
2018-09-24T01:12:41.195Z,4.43
2018-09-24T01:15:09.825Z,3.90
2018-09-24T01:17:38.601Z,3.73
2018-09-24T01:20:07.197Z,3.80
2018-09-24T01:22:35.559Z,4.17
2018-09-24T01:25:04.029Z,4.30
2018-09-24T01:27:32.338Z,4.63
2018-09-24T01:30:00.737Z,4.60
2018-09-24T01:32:29.050Z,4.20
2018-09-24T01:34:57.502Z,4.00
2018-09-24T01:37:25.829Z,4.60
2018-09-24T01:39:54.148Z,3.90
2018-09-24T01:42:22.585Z,5.00
2018-09-24T01:44:50.907Z,4.60
2018-09-24T01:47:19.348Z,4.93
2018-09-24T01:49:47.660Z,4.63
2018-09-24T01:52:16.037Z,4.43
2018-09-24T01:54:44.401Z,4.70
2018-09-24T01:57:14.473Z,4.20
2018-09-24T01:59:47.889Z,4.53
2018-09-24T02:02:16.578Z,4.97
2018-09-24T02:04:45.041Z,4.50
2018-09-24T02:07:13.401Z,5.03
2018-09-24T02:09:41.713Z,5.03
2018-09-24T02:12:10.056Z,4.27
2018-09-24T02:14:38.355Z,4.70
2018-09-24T02:17:11.254Z,5.17
2018-09-24T02:19:39.613Z,4.90
2018-09-24T02:22:08.042Z,5.00
2018-09-24T02:24:36.373Z,4.70
2018-09-24T02:27:07.458Z,4.57
2018-09-24T02:29:36.339Z,4.70
2018-09-24T02:32:04.638Z,5.40
2018-09-24T02:34:32.971Z,5.50
2018-09-24T02:37:01.412Z,4.80
2018-09-24T02:39:29.770Z,4.33
2018-09-24T02:41:58.099Z,5.13
2018-09-24T02:44:27.920Z,4.47
2018-09-24T02:46:56.218Z,4.80
2018-09-24T02:49:24.546Z,4.87
2018-09-24T02:51:53.064Z,4.70
2018-09-24T02:54:21.426Z,4.27
2018-09-24T02:56:53.984Z,4.20
2018-09-24T02:59:22.480Z,4.20
2018-09-24T03:01:50.991Z,4.60
2018-09-24T03:04:19.376Z,4.03
2018-09-24T03:06:47.755Z,4.40
2018-09-24T03:09:17.154Z,4.70
2018-09-24T03:11:45.907Z,4.73
2018-09-24T03:14:14.453Z,5.00
2018-09-24T03:16:42.805Z,4.53
2018-09-24T03:19:11.127Z,4.53
2018-09-24T03:21:39.612Z,4.77
2018-09-24T03:24:07.980Z,4.40
2018-09-24T03:26:40.763Z,5.00
2018-09-24T03:29:09.485Z,4.50
2018-09-24T03:31:37.810Z,4.80
2018-09-24T03:34:07.118Z,4.10
2018-09-24T03:36:35.418Z,4.27
2018-09-24T03:39:04.620Z,4.53
2018-09-24T03:41:33.010Z,4.93
2018-09-24T03:44:01.358Z,4.73
2018-09-24T03:46:29.714Z,5.20
2018-09-24T03:48:58.082Z,5.13
2018-09-24T03:51:26.493Z,5.20
2018-09-24T03:53:54.765Z,5.70
2018-09-24T03:56:23.061Z,4.17
2018-09-24T03:58:51.400Z,4.30
2018-09-24T04:01:19.753Z,4.90
2018-09-24T04:03:48.114Z,4.60
2018-09-24T04:06:21.928Z,4.13
2018-09-24T04:08:55.642Z,4.53
2018-09-24T04:11:29.414Z,5.10
2018-09-24T04:14:03.080Z,4.93
2018-09-24T04:16:36.801Z,4.30
2018-09-24T04:19:10.571Z,5.27
2018-09-24T04:21:44.254Z,5.13
2018-09-24T04:24:17.988Z,4.93
2018-09-24T04:26:51.719Z,4.80
2018-09-24T04:29:25.437Z,5.63
2018-09-24T04:31:59.237Z,5.60
2018-09-24T04:34:33.062Z,5.27
2018-09-24T04:37:13.466Z,4.87
2018-09-24T04:39:47.126Z,5.40
2018-09-24T04:42:20.841Z,5.23
2018-09-24T04:44:54.692Z,5.50
2018-09-24T04:47:28.419Z,5.50
2018-09-24T04:50:02.089Z,5.27
2018-09-24T04:52:35.873Z,5.30
2018-09-24T04:55:09.437Z,4.93
2018-09-24T04:57:43.094Z,5.83
2018-09-24T05:00:16.665Z,6.40
2018-09-24T05:02:50.395Z,5.50
2018-09-24T05:05:24.141Z,6.83
2018-09-24T05:07:57.893Z,5.40
2018-09-24T05:10:31.470Z,6.43
2018-09-24T05:13:05.182Z,6.20
2018-09-24T05:15:38.771Z,6.33
2018-09-24T05:18:12.338Z,5.03
2018-09-24T05:20:46.071Z,5.17
2018-09-24T05:23:19.837Z,6.17
2018-09-24T05:25:53.459Z,7.00
2018-09-24T05:28:27.247Z,6.53
2018-09-24T05:31:00.989Z,4.77
2018-09-24T05:33:34.758Z,7.60
2018-09-24T05:36:08.341Z,6.47
2018-09-24T05:38:41.963Z,5.90
2018-09-24T05:41:15.611Z,5.30
2018-09-24T05:43:49.263Z,5.90
2018-09-24T05:46:23.067Z,6.03
2018-09-24T05:48:56.826Z,5.97
2018-09-24T05:51:30.426Z,5.40
2018-09-24T05:54:04.102Z,5.80
2018-09-24T05:56:37.742Z,5.80
2018-09-24T05:59:14.953Z,7.20
2018-09-24T06:01:48.797Z,8.30
2018-09-24T06:04:22.498Z,7.07
2018-09-24T06:06:56.219Z,7.53
2018-09-24T06:09:29.923Z,5.90
2018-09-24T06:12:03.523Z,5.33
2018-09-24T06:14:37.202Z,5.77
2018-09-24T06:17:10.932Z,4.27
2018-09-24T06:19:44.611Z,4.50
2018-09-24T06:22:18.220Z,4.10
2018-09-24T06:24:52.006Z,4.00
2018-09-24T06:27:25.678Z,3.57
2018-09-24T06:29:59.379Z,3.20
2018-09-24T06:32:33.100Z,3.43
2018-09-24T06:35:06.853Z,3.13
2018-09-24T06:37:40.555Z,2.90
2018-09-24T06:40:14.327Z,4.87
2018-09-24T06:42:48.089Z,2.70
2018-09-24T06:45:21.863Z,3.33
2018-09-24T06:47:55.497Z,3.20
2018-09-24T06:50:29.235Z,3.00
2018-09-24T06:53:02.747Z,3.50
2018-09-24T06:55:36.359Z,2.83
2018-09-24T06:58:10.038Z,2.30
2018-09-24T07:00:43.855Z,2.77
2018-09-24T07:03:17.643Z,2.80
2018-09-24T07:05:51.438Z,2.47
2018-09-24T07:08:24.931Z,2.50
2018-09-24T07:10:58.444Z,2.60
2018-09-24T07:13:32.030Z,2.93
2018-09-24T07:16:05.821Z,2.53
2018-09-24T07:18:39.558Z,3.00
2018-09-24T07:21:13.320Z,2.60
2018-09-24T07:23:47.053Z,2.87
2018-09-24T07:26:20.809Z,2.77
2018-09-24T07:28:54.776Z,2.50
2018-09-24T07:31:28.408Z,2.60
2018-09-24T07:34:02.155Z,2.70
2018-09-24T07:36:35.916Z,2.53
2018-09-24T07:39:12.607Z,2.70
2018-09-24T07:41:46.481Z,2.07
2018-09-24T07:44:20.087Z,2.03
2018-09-24T07:46:53.709Z,2.50
2018-09-24T07:49:27.528Z,2.10
2018-09-24T07:52:01.146Z,3.00
2018-09-24T07:54:34.915Z,2.17
2018-09-24T07:57:08.690Z,2.80
2018-09-24T07:59:42.395Z,1.93
2018-09-24T08:02:16.187Z,2.63
2018-09-24T08:04:49.932Z,2.37
2018-09-24T08:07:23.736Z,1.90
2018-09-24T08:09:57.490Z,2.10
2018-09-24T08:12:31.211Z,2.20
2018-09-24T08:15:04.860Z,2.30
2018-09-24T08:17:38.524Z,2.37
2018-09-24T08:20:12.131Z,2.40
2018-09-24T08:22:45.916Z,2.20
2018-09-24T08:25:19.640Z,2.00
2018-09-24T08:27:53.357Z,1.90
2018-09-24T08:30:27.005Z,1.90
2018-09-24T08:33:00.818Z,2.10
2018-09-24T08:35:34.587Z,2.40
2018-09-24T08:38:08.357Z,2.23
2018-09-24T08:40:42.085Z,2.10
2018-09-24T08:43:15.774Z,1.90
2018-09-24T08:45:49.607Z,2.50
2018-09-24T08:48:23.372Z,2.17
2018-09-24T08:50:57.093Z,2.00
2018-09-24T08:53:30.815Z,1.80
2018-09-24T08:56:04.477Z,1.90
2018-09-24T08:58:38.185Z,1.83
2018-09-24T09:01:12.171Z,2.40
2018-09-24T09:03:45.832Z,2.00
2018-09-24T09:06:19.462Z,2.60
2018-09-24T09:08:53.219Z,1.90
2018-09-24T09:11:27.023Z,2.00
2018-09-24T09:14:00.810Z,1.77
2018-09-24T09:16:34.489Z,2.20
2018-09-24T09:19:08.229Z,2.27
2018-09-24T09:21:41.886Z,2.03
2018-09-24T09:24:15.555Z,2.13
2018-09-24T09:26:49.333Z,2.10
2018-09-24T09:29:23.088Z,2.10
2018-09-24T09:31:56.769Z,1.63
2018-09-24T09:34:30.587Z,2.03
2018-09-24T09:37:04.336Z,2.40
2018-09-24T09:39:37.871Z,2.40
2018-09-24T09:42:11.636Z,2.07
2018-09-24T09:44:45.459Z,2.20
2018-09-24T09:47:19.041Z,1.70
2018-09-24T09:49:52.733Z,2.33
2018-09-24T09:52:26.479Z,1.80
2018-09-24T09:55:00.246Z,2.13
2018-09-24T09:57:33.913Z,1.97
2018-09-24T10:00:07.709Z,2.20
2018-09-24T10:02:41.460Z,2.40
2018-09-24T10:05:15.080Z,1.53
2018-09-24T10:07:48.812Z,1.67
2018-09-24T10:10:22.801Z,2.17
2018-09-24T10:12:56.483Z,1.97
2018-09-24T10:15:30.013Z,1.77
2018-09-24T10:18:03.892Z,1.47
2018-09-24T10:20:37.491Z,1.90
2018-09-24T10:23:11.272Z,1.47
2018-09-24T10:25:45.010Z,2.50
2018-09-24T10:28:18.931Z,1.60
2018-09-24T10:30:52.601Z,1.40
2018-09-24T10:33:26.251Z,1.10
2018-09-24T10:36:00.114Z,1.50
2018-09-24T10:38:33.834Z,2.03
2018-09-24T10:41:07.571Z,1.20
2018-09-24T10:43:41.153Z,1.67
2018-09-24T10:46:15.067Z,1.80
2018-09-24T10:48:48.624Z,1.90
2018-09-24T10:51:22.367Z,1.40
2018-09-24T10:53:55.972Z,1.60
2018-09-24T10:56:29.725Z,1.37
2018-09-24T10:59:03.321Z,1.63
2018-09-24T11:01:37.128Z,1.30
2018-09-24T11:04:10.916Z,1.07
2018-09-24T11:06:44.669Z,1.50
2018-09-24T11:09:18.296Z,1.30
2018-09-24T11:11:51.822Z,1.50
2018-09-24T11:14:25.622Z,1.30
2018-09-24T11:16:59.491Z,1.43
2018-09-24T11:19:32.965Z,1.20
2018-09-24T11:22:06.768Z,2.20
2018-09-24T11:24:40.477Z,1.30
2018-09-24T11:27:14.149Z,1.37
2018-09-24T11:29:48.066Z,1.57
2018-09-24T11:32:21.952Z,1.13
2018-09-24T11:34:55.689Z,1.30
2018-09-24T11:37:29.455Z,1.40
2018-09-24T11:40:03.187Z,1.17
2018-09-24T11:42:37.008Z,1.40
2018-09-24T11:45:10.565Z,1.50
2018-09-24T11:47:44.318Z,1.30
2018-09-24T11:50:17.936Z,1.60
2018-09-24T11:52:51.554Z,1.17
2018-09-24T11:55:25.457Z,1.50
2018-09-24T11:57:59.038Z,1.77
2018-09-24T12:00:32.624Z,1.20
2018-09-24T12:03:06.350Z,1.43
2018-09-24T12:05:39.940Z,1.27
2018-09-24T12:08:13.604Z,1.27
2018-09-24T12:10:47.162Z,1.07
2018-09-24T12:13:20.901Z,1.40
2018-09-24T12:15:54.661Z,1.10
2018-09-24T12:18:28.285Z,1.30
2018-09-24T12:21:02.150Z,1.50
2018-09-24T12:23:35.989Z,1.40
2018-09-24T12:26:09.697Z,1.50
2018-09-24T12:28:43.296Z,1.20
2018-09-24T12:31:16.850Z,1.20
2018-09-24T12:33:50.514Z,1.23
2018-09-24T12:36:24.177Z,1.70
2018-09-24T12:38:57.833Z,1.33
2018-09-24T12:41:31.587Z,0.90
2018-09-24T12:44:05.349Z,1.13
2018-09-24T12:46:39.089Z,1.27
2018-09-24T12:49:12.822Z,1.50
2018-09-24T12:51:46.440Z,1.93
2018-09-24T12:54:20.394Z,1.47
2018-09-24T12:56:54.163Z,2.17
2018-09-24T12:59:27.945Z,1.40
2018-09-24T13:02:01.726Z,1.40
2018-09-24T13:04:35.303Z,1.50
2018-09-24T13:07:09.084Z,1.50
2018-09-24T13:09:42.860Z,1.50
2018-09-24T13:12:16.689Z,1.10
2018-09-24T13:14:50.365Z,1.33
2018-09-24T13:17:24.025Z,1.60
2018-09-24T13:19:57.849Z,1.20
2018-09-24T13:22:31.537Z,1.00
2018-09-24T13:25:05.181Z,1.50
2018-09-24T13:27:38.773Z,2.10
2018-09-24T13:30:12.708Z,1.27
2018-09-24T13:32:46.388Z,1.40
2018-09-24T13:35:20.012Z,1.00
2018-09-24T13:37:53.669Z,1.73
2018-09-24T13:40:27.415Z,1.10
2018-09-24T13:43:01.254Z,1.40
2018-09-24T13:45:35.094Z,1.33
2018-09-24T13:48:08.792Z,1.20
2018-09-24T13:50:42.436Z,0.80
2018-09-24T13:53:16.404Z,0.90
2018-09-24T13:55:50.076Z,1.30
2018-09-24T13:58:23.899Z,1.30
2018-09-24T14:00:57.536Z,1.07
2018-09-24T14:03:31.145Z,1.03
2018-09-24T14:06:04.869Z,1.03
2018-09-24T14:08:38.430Z,1.00
2018-09-24T14:11:12.201Z,1.03
2018-09-24T14:13:45.742Z,1.20
2018-09-24T14:16:19.475Z,0.80
2018-09-24T14:18:53.091Z,1.10
2018-09-24T14:21:26.938Z,1.47
2018-09-24T14:24:00.888Z,1.00
2018-09-24T14:26:34.449Z,1.07
2018-09-24T14:29:08.029Z,1.50
2018-09-24T14:31:41.969Z,1.00
2018-09-24T14:34:15.748Z,1.20
2018-09-24T14:36:49.463Z,1.50
2018-09-24T14:39:23.129Z,1.10
2018-09-24T14:41:56.940Z,1.00
2018-09-24T14:44:30.728Z,1.17
2018-09-24T14:47:04.426Z,1.00
2018-09-24T14:49:38.131Z,1.10
2018-09-24T14:52:11.861Z,1.00
2018-09-24T14:54:45.451Z,1.10
2018-09-24T14:57:19.127Z,0.90
2018-09-24T14:59:52.907Z,1.10
2018-09-24T15:02:26.619Z,1.30
2018-09-24T15:05:00.778Z,0.90
2018-09-24T15:07:34.572Z,0.93
2018-09-24T15:10:08.259Z,1.10
2018-09-24T15:12:42.088Z,1.20
2018-09-24T15:15:15.722Z,1.37
2018-09-24T15:17:49.465Z,1.10
2018-09-24T15:20:23.173Z,1.10
2018-09-24T15:22:56.869Z,1.00
2018-09-24T15:25:30.582Z,1.10
2018-09-24T15:28:04.371Z,1.30
2018-09-24T15:30:38.079Z,1.10
2018-09-24T15:33:11.856Z,1.20
2018-09-24T15:35:45.391Z,1.27
2018-09-24T15:38:19.099Z,1.43
2018-09-24T15:40:52.891Z,1.40
2018-09-24T15:43:26.429Z,1.00
2018-09-24T15:46:00.090Z,1.20
2018-09-24T15:48:33.688Z,1.33
2018-09-24T15:51:07.386Z,1.10
2018-09-24T15:53:41.036Z,1.10
2018-09-24T15:56:14.703Z,1.20
2018-09-24T15:58:48.405Z,1.17
2018-09-24T16:01:22.141Z,1.20
2018-09-24T16:03:55.930Z,1.30
2018-09-24T16:06:29.544Z,1.30
2018-09-24T16:09:03.234Z,1.10
2018-09-24T16:11:37.007Z,1.00
2018-09-24T16:14:10.975Z,1.13
2018-09-24T16:16:44.605Z,1.10
2018-09-24T16:19:18.417Z,1.10
2018-09-24T16:21:52.057Z,1.00
2018-09-24T16:24:25.714Z,1.10
2018-09-24T16:26:59.470Z,1.10
2018-09-24T16:29:33.120Z,1.10
2018-09-24T16:32:06.849Z,1.77
2018-09-24T16:34:40.437Z,1.00
2018-09-24T16:37:14.026Z,0.90
2018-09-24T16:39:47.638Z,1.20
2018-09-24T16:42:21.266Z,1.13
2018-09-24T16:44:54.901Z,1.20
2018-09-24T16:47:28.554Z,1.10
2018-09-24T16:50:02.349Z,1.27
2018-09-24T16:52:36.056Z,1.00
2018-09-24T16:55:10.019Z,1.40
2018-09-24T16:57:43.745Z,1.20
2018-09-24T17:00:17.679Z,1.23
2018-09-24T17:02:51.521Z,1.70
2018-09-24T17:05:25.101Z,1.10
2018-09-24T17:07:58.934Z,1.13
2018-09-24T17:10:32.565Z,1.00
2018-09-24T17:13:06.324Z,1.33
2018-09-24T17:15:40.183Z,1.20
2018-09-24T17:18:13.845Z,1.30
2018-09-24T17:20:47.506Z,1.63
2018-09-24T17:23:21.274Z,1.37
2018-09-24T17:25:55.038Z,1.70
2018-09-24T17:28:28.732Z,1.23
2018-09-24T17:31:02.405Z,1.10
2018-09-24T17:33:36.023Z,1.50
2018-09-24T17:36:09.718Z,2.07
2018-09-24T17:38:43.284Z,1.90
2018-09-24T17:41:17.067Z,2.10
2018-09-24T17:43:50.873Z,1.73
2018-09-24T17:46:24.597Z,1.40
2018-09-24T17:48:58.274Z,1.50
2018-09-24T17:51:32.111Z,1.83
2018-09-24T17:54:05.713Z,1.70
2018-09-24T17:56:39.502Z,1.90
2018-09-24T17:59:13.236Z,1.70
2018-09-24T18:01:46.929Z,1.30
2018-09-24T18:04:20.716Z,1.50
2018-09-24T18:06:54.498Z,1.80
2018-09-24T18:09:28.369Z,1.50
2018-09-24T18:12:02.039Z,2.90
2018-09-24T18:14:35.589Z,1.40
2018-09-24T18:17:09.348Z,2.20
2018-09-24T18:19:43.123Z,3.03
2018-09-24T18:22:16.787Z,1.60
2018-09-24T18:24:50.332Z,1.70
2018-09-24T18:27:24.212Z,1.80
2018-09-24T18:29:58.599Z,2.13
2018-09-24T18:32:32.334Z,2.00
2018-09-24T18:35:05.959Z,2.03
2018-09-24T18:37:40.061Z,2.07
2018-09-24T18:40:13.641Z,1.77
2018-09-24T18:42:47.611Z,2.07
2018-09-24T18:45:21.297Z,1.90
2018-09-24T18:47:55.024Z,1.57
2018-09-24T18:50:28.921Z,1.80
2018-09-24T18:53:02.680Z,1.83
2018-09-24T18:55:36.573Z,1.73
2018-09-24T18:58:10.223Z,2.40
2018-09-24T19:00:44.063Z,3.27
2018-09-24T19:03:17.845Z,3.73
2018-09-24T19:05:51.758Z,1.60
2018-09-24T19:08:25.572Z,2.37
2018-09-24T19:10:59.458Z,2.97
2018-09-24T19:13:33.121Z,2.67
2018-09-24T19:16:06.891Z,2.73
2018-09-24T19:18:40.583Z,2.30
2018-09-24T19:21:14.474Z,2.83
2018-09-24T19:23:48.251Z,3.50
2018-09-24T19:26:21.990Z,3.40
2018-09-24T19:28:55.625Z,5.67
2018-09-24T19:31:29.399Z,4.30
2018-09-24T19:34:03.165Z,4.07
2018-09-24T19:36:36.892Z,3.77
2018-09-24T19:39:13.233Z,5.47
2018-09-24T19:41:47.690Z,4.67
2018-09-24T19:44:21.469Z,3.97
2018-09-24T19:46:55.027Z,6.20
2018-09-24T19:49:28.777Z,5.83
2018-09-24T19:52:02.471Z,3.90
2018-09-24T19:54:36.271Z,3.37
2018-09-24T19:57:09.958Z,2.67
2018-09-24T19:59:43.763Z,2.83
2018-09-24T20:02:17.503Z,2.77
2018-09-24T20:04:53.526Z,2.20
2018-09-24T20:07:27.393Z,2.60
2018-09-24T20:10:01.050Z,3.50
2018-09-24T20:12:34.653Z,2.83
2018-09-24T20:15:08.495Z,2.70
2018-09-24T20:17:42.219Z,3.00
2018-09-24T20:20:16.541Z,2.90
2018-09-24T20:22:50.296Z,3.40
2018-09-24T20:25:24.178Z,2.47
2018-09-24T20:27:58.142Z,2.77
2018-09-24T20:30:32.053Z,2.20
2018-09-24T20:33:06.309Z,2.50
2018-09-24T20:35:39.908Z,2.60
2018-09-24T20:38:13.799Z,2.90
2018-09-24T20:40:47.728Z,2.90
2018-09-24T20:43:21.413Z,3.00
2018-09-24T20:45:55.294Z,2.13
2018-09-24T20:48:28.942Z,2.70
2018-09-24T20:51:02.895Z,2.90
2018-09-24T20:53:36.475Z,2.80
2018-09-24T20:56:10.395Z,3.50
2018-09-24T20:58:43.966Z,3.80
2018-09-24T21:01:17.650Z,2.90
2018-09-24T21:03:51.406Z,2.80
2018-09-24T21:06:25.206Z,2.60
2018-09-24T21:08:59.123Z,3.00
2018-09-24T21:11:32.921Z,2.50
2018-09-24T21:14:09.794Z,2.90
2018-09-24T21:16:44.262Z,2.90
2018-09-24T21:19:18.600Z,2.90
2018-09-24T21:21:52.555Z,2.90
2018-09-24T21:24:26.180Z,2.93
2018-09-24T21:26:59.718Z,2.80
2018-09-24T21:29:33.426Z,3.00
2018-09-24T21:32:07.245Z,2.97
2018-09-24T21:34:40.963Z,3.17
2018-09-24T21:37:14.658Z,2.70
2018-09-24T21:39:48.429Z,2.87
2018-09-24T21:42:22.061Z,2.80
2018-09-24T21:44:55.856Z,2.70
2018-09-24T21:47:29.694Z,3.17
2018-09-24T21:50:03.540Z,3.10
2018-09-24T21:52:37.291Z,3.43
2018-09-24T21:55:10.890Z,3.60
2018-09-24T21:57:44.674Z,3.10
2018-09-24T22:00:18.398Z,3.17
2018-09-24T22:02:52.042Z,3.23
2018-09-24T22:05:25.801Z,3.57
2018-09-24T22:07:59.397Z,3.20
2018-09-24T22:10:33.203Z,3.37
2018-09-24T22:13:06.825Z,3.83
2018-09-24T22:15:40.466Z,3.43
2018-09-24T22:18:14.212Z,3.27
2018-09-24T22:20:47.955Z,3.30
2018-09-24T22:23:21.794Z,3.63
2018-09-24T22:25:55.384Z,3.17
2018-09-24T22:28:29.204Z,4.70
2018-09-24T22:31:02.816Z,4.17
2018-09-24T22:33:36.581Z,3.37
2018-09-24T22:36:10.331Z,4.30
2018-09-24T22:38:44.077Z,3.90
2018-09-24T22:41:17.820Z,4.17
2018-09-24T22:43:51.608Z,4.37
2018-09-24T22:46:25.339Z,4.00
2018-09-24T22:48:58.988Z,3.80
2018-09-24T22:51:32.612Z,3.90
2018-09-24T22:54:06.362Z,3.53
2018-09-24T22:56:39.977Z,4.50
2018-09-24T22:59:13.634Z,4.20
2018-09-24T23:01:47.262Z,4.03
2018-09-24T23:04:20.967Z,3.20
2018-09-24T23:06:54.605Z,4.13
2018-09-24T23:09:28.305Z,3.63
2018-09-24T23:12:01.826Z,3.50
2018-09-24T23:14:35.514Z,3.60
2018-09-24T23:17:09.519Z,3.60
2018-09-24T23:19:43.259Z,3.27
2018-09-24T23:22:16.984Z,3.63
2018-09-24T23:24:50.758Z,2.90
2018-09-24T23:27:24.284Z,3.50
2018-09-24T23:29:57.915Z,3.20
2018-09-24T23:32:31.613Z,4.57
2018-09-24T23:35:05.175Z,4.50
2018-09-24T23:37:38.959Z,4.47
2018-09-24T23:40:12.811Z,5.00
2018-09-24T23:42:46.471Z,4.40
2018-09-24T23:45:20.000Z,5.40
2018-09-24T23:47:53.611Z,4.83
2018-09-24T23:50:27.332Z,4.00
2018-09-24T23:53:00.932Z,4.90
2018-09-24T23:55:34.627Z,4.70
2018-09-24T23:58:08.214Z,4.17
